Terminal Aerodrome Forecast
Issued by NWS

Home | Current Version | Previous Version | Text Only | Print | Product List | Glossary On
Versions: 1 2 3 4 5 6 7 8 9 10 11 12 13 14 15 16 17 18 19 20 21 22 23 24 25 26 27 28 29 30 31 32 33 34 35 36 37 38 39 40 41 42 43 44 45 46 47 48
000
FTAK31 PAFA 231738
TAFAFA
TAF
PAFA 231738Z 2318/2424 22009G19KT 3SM -SHSN BR OVC025
      TEMPO 2318/2320 1 1/2SM -SHSN BLSN BR
     FM232300 25006KT 4SM -SHSN BR OVC035
     FM240300 30005KT P6SM BKN050 BKN100=

USA.gov is the U.S. government's official web portal to all federal, state and local government web resources and services.